Archival Weather

Chicago O'Hare International

Chicago, Illinois (KORD)

Report from: Monday, January 23, 2023 10:51 AM CST
Current time: Tuesday, February 27, 2024 3:46 AM CST

Current weather – Weather history – Daily summaries
Weather forecast

Temperature-3.3°C (26.1°F)
Wind chill-8.4°C (16.8°F)
Dew point-6.1°C (21.0°F)
Winds 8 kts (4.1 m/s, 9.2 mph) West (260°)
Visibility10 mi. (16.1 km)
Clouds Ceiling: Broken clouds 1,100 ft. (335 m)
Altimeter30.08 in.Hg (1019 mB)
Relative humidity81 %
Density altitude-2,408 ft. (-734 m)
Sea-level pressure102.0 kPa (1020 mB, 30.11 in.Hg)
Remarks Automated weather observing station with precipitation discriminator
Flight conditions Marginal Visual Meteorological Conditions
Raw dataKORD 231651Z 26008KT 10SM BKN011 M03/M06 A3008 RMK AO2 SLP196 T10331061
An error has occurred. This application may no longer respond until reloaded. Reload 🗙